sensor_id;sensor_type;location;lat;lon;timestamp;temperature;humidity
41533;DHT22;27262;-35.248;149.138;2023-12-29T00:02:09;23.20;64.60
41533;DHT22;27262;-35.248;149.138;2023-12-29T00:04:39;23.20;64.60
41533;DHT22;27262;-35.248;149.138;2023-12-29T00:07:09;23.20;65.30
41533;DHT22;27262;-35.248;149.138;2023-12-29T00:09:40;23.20;64.60
41533;DHT22;27262;-35.248;149.138;2023-12-29T00:12:10;23.20;64.60
41533;DHT22;27262;-35.248;149.138;2023-12-29T00:14:41;23.20;64.50
41533;DHT22;27262;-35.248;149.138;2023-12-29T00:17:13;23.20;64.50
41533;DHT22;27262;-35.248;149.138;2023-12-29T00:19:43;23.30;64.50
41533;DHT22;27262;-35.248;149.138;2023-12-29T00:22:14;23.30;64.50
41533;DHT22;27262;-35.248;149.138;2023-12-29T00:24:44;23.30;64.50
41533;DHT22;27262;-35.248;149.138;2023-12-29T00:27:15;23.30;64.50
41533;DHT22;27262;-35.248;149.138;2023-12-29T00:29:46;23.30;64.50
41533;DHT22;27262;-35.248;149.138;2023-12-29T00:32:16;23.30;64.50
41533;DHT22;27262;-35.248;149.138;2023-12-29T00:34:47;23.30;64.50
41533;DHT22;27262;-35.248;149.138;2023-12-29T00:37:18;23.30;64.50
41533;DHT22;27262;-35.248;149.138;2023-12-29T00:39:48;23.30;64.50
41533;DHT22;27262;-35.248;149.138;2023-12-29T00:42:18;23.30;64.50
41533;DHT22;27262;-35.248;149.138;2023-12-29T00:44:48;23.30;64.50
41533;DHT22;27262;-35.248;149.138;2023-12-29T00:47:19;23.30;64.50
41533;DHT22;27262;-35.248;149.138;2023-12-29T00:49:49;23.30;64.50
41533;DHT22;27262;-35.248;149.138;2023-12-29T00:52:20;23.30;64.50
41533;DHT22;27262;-35.248;149.138;2023-12-29T00:54:50;23.30;64.40
41533;DHT22;27262;-35.248;149.138;2023-12-29T00:57:20;23.30;64.40
41533;DHT22;27262;-35.248;149.138;2023-12-29T00:59:51;23.30;64.40
41533;DHT22;27262;-35.248;149.138;2023-12-29T01:02:21;23.30;64.40
41533;DHT22;27262;-35.248;149.138;2023-12-29T01:04:52;23.30;64.40
41533;DHT22;27262;-35.248;149.138;2023-12-29T01:07:22;23.30;64.40
41533;DHT22;27262;-35.248;149.138;2023-12-29T01:09:53;23.40;64.40
41533;DHT22;27262;-35.248;149.138;2023-12-29T01:12:23;23.30;64.30
41533;DHT22;27262;-35.248;149.138;2023-12-29T01:14:53;23.40;64.40
41533;DHT22;27262;-35.248;149.138;2023-12-29T01:17:24;23.40;64.40
41533;DHT22;27262;-35.248;149.138;2023-12-29T01:19:56;23.40;64.40
41533;DHT22;27262;-35.248;149.138;2023-12-29T01:22:28;23.40;64.40
41533;DHT22;27262;-35.248;149.138;2023-12-29T01:25:01;23.40;64.40
41533;DHT22;27262;-35.248;149.138;2023-12-29T01:27:33;23.40;64.40
41533;DHT22;27262;-35.248;149.138;2023-12-29T01:30:03;23.40;64.40
41533;DHT22;27262;-35.248;149.138;2023-12-29T01:32:35;23.40;64.40
41533;DHT22;27262;-35.248;149.138;2023-12-29T01:35:06;23.40;64.40
41533;DHT22;27262;-35.248;149.138;2023-12-29T01:37:37;23.40;64.40
41533;DHT22;27262;-35.248;149.138;2023-12-29T01:40:08;23.40;64.30
41533;DHT22;27262;-35.248;149.138;2023-12-29T01:42:38;23.40;64.40
41533;DHT22;27262;-35.248;149.138;2023-12-29T01:45:23;23.40;64.30
41533;DHT22;27262;-35.248;149.138;2023-12-29T01:47:56;23.40;64.20
41533;DHT22;27262;-35.248;149.138;2023-12-29T01:50:26;23.40;64.40
41533;DHT22;27262;-35.248;149.138;2023-12-29T01:52:57;23.40;64.40
41533;DHT22;27262;-35.248;149.138;2023-12-29T01:55:28;23.40;64.30
41533;DHT22;27262;-35.248;149.138;2023-12-29T01:57:59;23.40;64.30
41533;DHT22;27262;-35.248;149.138;2023-12-29T02:00:31;23.40;64.30
41533;DHT22;27262;-35.248;149.138;2023-12-29T02:03:03;23.40;64.30
41533;DHT22;27262;-35.248;149.138;2023-12-29T02:05:35;23.40;64.30
41533;DHT22;27262;-35.248;149.138;2023-12-29T02:08:06;23.40;64.30
41533;DHT22;27262;-35.248;149.138;2023-12-29T02:10:38;23.40;64.30
41533;DHT22;27262;-35.248;149.138;2023-12-29T02:13:08;23.40;64.30
41533;DHT22;27262;-35.248;149.138;2023-12-29T02:15:38;23.40;64.30
41533;DHT22;27262;-35.248;149.138;2023-12-29T02:18:13;23.40;64.30
41533;DHT22;27262;-35.248;149.138;2023-12-29T02:20:44;23.40;64.30
41533;DHT22;27262;-35.248;149.138;2023-12-29T02:23:15;23.40;64.30
41533;DHT22;27262;-35.248;149.138;2023-12-29T02:25:45;23.40;64.20
41533;DHT22;27262;-35.248;149.138;2023-12-29T02:28:26;23.40;64.20
41533;DHT22;27262;-35.248;149.138;2023-12-29T02:31:13;23.50;64.20
41533;DHT22;27262;-35.248;149.138;2023-12-29T02:33:46;23.40;64.20
41533;DHT22;27262;-35.248;149.138;2023-12-29T02:36:17;23.40;64.30
41533;DHT22;27262;-35.248;149.138;2023-12-29T02:38:48;23.40;64.20
41533;DHT22;27262;-35.248;149.138;2023-12-29T02:41:19;23.40;64.20
41533;DHT22;27262;-35.248;149.138;2023-12-29T02:43:51;23.40;64.20
41533;DHT22;27262;-35.248;149.138;2023-12-29T02:46:21;23.40;64.20
41533;DHT22;27262;-35.248;149.138;2023-12-29T02:48:52;23.50;64.20
41533;DHT22;27262;-35.248;149.138;2023-12-29T02:51:22;23.40;64.20
41533;DHT22;27262;-35.248;149.138;2023-12-29T02:53:53;23.50;64.20
41533;DHT22;27262;-35.248;149.138;2023-12-29T02:56:23;23.40;64.00
41533;DHT22;27262;-35.248;149.138;2023-12-29T02:58:53;23.40;64.00
41533;DHT22;27262;-35.248;149.138;2023-12-29T03:01:24;23.50;64.10
41533;DHT22;27262;-35.248;149.138;2023-12-29T03:03:55;23.50;64.00
41533;DHT22;27262;-35.248;149.138;2023-12-29T03:06:26;23.50;64.00
41533;DHT22;27262;-35.248;149.138;2023-12-29T03:08:56;23.50;64.00
41533;DHT22;27262;-35.248;149.138;2023-12-29T03:11:27;23.50;64.00
41533;DHT22;27262;-35.248;149.138;2023-12-29T03:13:57;23.50;64.00
41533;DHT22;27262;-35.248;149.138;2023-12-29T03:16:27;23.50;63.90
41533;DHT22;27262;-35.248;149.138;2023-12-29T03:19:01;23.50;63.90
41533;DHT22;27262;-35.248;149.138;2023-12-29T03:21:31;23.50;63.90
41533;DHT22;27262;-35.248;149.138;2023-12-29T03:24:02;23.50;63.90
41533;DHT22;27262;-35.248;149.138;2023-12-29T03:26:32;23.50;63.90
41533;DHT22;27262;-35.248;149.138;2023-12-29T03:29:02;23.50;63.80
41533;DHT22;27262;-35.248;149.138;2023-12-29T03:31:33;23.50;63.80
41533;DHT22;27262;-35.248;149.138;2023-12-29T03:34:04;23.50;63.70
41533;DHT22;27262;-35.248;149.138;2023-12-29T03:36:34;23.50;63.70
41533;DHT22;27262;-35.248;149.138;2023-12-29T03:39:04;23.60;63.70
41533;DHT22;27262;-35.248;149.138;2023-12-29T03:41:35;23.50;63.70
41533;DHT22;27262;-35.248;149.138;2023-12-29T03:44:05;23.60;63.70
41533;DHT22;27262;-35.248;149.138;2023-12-29T03:46:37;23.60;63.70
41533;DHT22;27262;-35.248;149.138;2023-12-29T03:49:07;23.60;63.80
41533;DHT22;27262;-35.248;149.138;2023-12-29T03:51:38;23.60;63.80
41533;DHT22;27262;-35.248;149.138;2023-12-29T03:54:08;23.60;63.80
41533;DHT22;27262;-35.248;149.138;2023-12-29T03:56:38;23.60;63.80
41533;DHT22;27262;-35.248;149.138;2023-12-29T03:59:10;23.60;63.80
41533;DHT22;27262;-35.248;149.138;2023-12-29T04:01:40;23.60;63.80
41533;DHT22;27262;-35.248;149.138;2023-12-29T04:04:11;23.60;63.90
41533;DHT22;27262;-35.248;149.138;2023-12-29T04:06:41;23.60;63.90
41533;DHT22;27262;-35.248;149.138;2023-12-29T04:09:11;23.60;63.90
41533;DHT22;27262;-35.248;149.138;2023-12-29T04:11:42;23.60;63.90
41533;DHT22;27262;-35.248;149.138;2023-12-29T04:14:13;23.60;64.70
41533;DHT22;27262;-35.248;149.138;2023-12-29T04:16:44;23.60;64.00
41533;DHT22;27262;-35.248;149.138;2023-12-29T04:19:14;23.60;64.00
41533;DHT22;27262;-35.248;149.138;2023-12-29T04:21:45;23.60;64.00
41533;DHT22;27262;-35.248;149.138;2023-12-29T04:24:15;23.60;64.00
41533;DHT22;27262;-35.248;149.138;2023-12-29T04:26:45;23.60;64.10
41533;DHT22;27262;-35.248;149.138;2023-12-29T04:29:16;23.60;64.20
41533;DHT22;27262;-35.248;149.138;2023-12-29T04:31:46;23.60;64.10
41533;DHT22;27262;-35.248;149.138;2023-12-29T04:34:16;23.60;64.10
41533;DHT22;27262;-35.248;149.138;2023-12-29T04:36:47;23.60;64.10
41533;DHT22;27262;-35.248;149.138;2023-12-29T04:39:17;23.60;64.10
41533;DHT22;27262;-35.248;149.138;2023-12-29T04:41:48;23.60;64.10
41533;DHT22;27262;-35.248;149.138;2023-12-29T04:44:18;23.60;64.20
41533;DHT22;27262;-35.248;149.138;2023-12-29T04:46:49;23.60;64.20
41533;DHT22;27262;-35.248;149.138;2023-12-29T04:49:19;23.60;64.20
41533;DHT22;27262;-35.248;149.138;2023-12-29T04:51:50;23.70;64.20
41533;DHT22;27262;-35.248;149.138;2023-12-29T04:54:21;23.70;64.10
41533;DHT22;27262;-35.248;149.138;2023-12-29T04:56:51;23.70;64.10
41533;DHT22;27262;-35.248;149.138;2023-12-29T04:59:21;23.70;64.20
41533;DHT22;27262;-35.248;149.138;2023-12-29T05:01:51;23.70;64.20
41533;DHT22;27262;-35.248;149.138;2023-12-29T05:04:22;23.70;64.10
41533;DHT22;27262;-35.248;149.138;2023-12-29T05:06:52;23.70;64.10
41533;DHT22;27262;-35.248;149.138;2023-12-29T05:09:22;23.80;64.10
41533;DHT22;27262;-35.248;149.138;2023-12-29T05:11:53;23.80;64.10
41533;DHT22;27262;-35.248;149.138;2023-12-29T05:14:23;23.80;64.00
41533;DHT22;27262;-35.248;149.138;2023-12-29T05:16:54;23.80;64.00
41533;DHT22;27262;-35.248;149.138;2023-12-29T05:19:24;23.80;63.90
41533;DHT22;27262;-35.248;149.138;2023-12-29T05:21:55;23.80;63.90
41533;DHT22;27262;-35.248;149.138;2023-12-29T05:24:25;23.80;63.90
41533;DHT22;27262;-35.248;149.138;2023-12-29T05:26:56;23.80;63.90
41533;DHT22;27262;-35.248;149.138;2023-12-29T05:29:26;23.80;63.80
41533;DHT22;27262;-35.248;149.138;2023-12-29T05:31:57;23.90;63.90
41533;DHT22;27262;-35.248;149.138;2023-12-29T05:34:28;23.80;63.80
41533;DHT22;27262;-35.248;149.138;2023-12-29T05:36:58;23.90;63.80
41533;DHT22;27262;-35.248;149.138;2023-12-29T05:39:28;23.90;63.70
41533;DHT22;27262;-35.248;149.138;2023-12-29T05:41:59;23.90;63.60
41533;DHT22;27262;-35.248;149.138;2023-12-29T05:44:29;23.90;63.60
41533;DHT22;27262;-35.248;149.138;2023-12-29T05:47:00;23.90;63.60
41533;DHT22;27262;-35.248;149.138;2023-12-29T05:49:30;23.90;63.50
41533;DHT22;27262;-35.248;149.138;2023-12-29T05:52:01;23.90;63.50
41533;DHT22;27262;-35.248;149.138;2023-12-29T05:54:32;23.90;63.40
41533;DHT22;27262;-35.248;149.138;2023-12-29T05:57:03;23.90;63.40
41533;DHT22;27262;-35.248;149.138;2023-12-29T05:59:34;23.90;63.50
41533;DHT22;27262;-35.248;149.138;2023-12-29T06:02:04;23.90;63.40
41533;DHT22;27262;-35.248;149.138;2023-12-29T06:04:34;23.90;63.60
41533;DHT22;27262;-35.248;149.138;2023-12-29T06:07:05;23.90;63.60
41533;DHT22;27262;-35.248;149.138;2023-12-29T06:09:35;24.00;63.90
41533;DHT22;27262;-35.248;149.138;2023-12-29T06:12:06;24.00;63.80
41533;DHT22;27262;-35.248;149.138;2023-12-29T06:14:37;24.00;63.80
41533;DHT22;27262;-35.248;149.138;2023-12-29T06:17:07;24.00;63.80
41533;DHT22;27262;-35.248;149.138;2023-12-29T06:19:38;24.00;63.80
41533;DHT22;27262;-35.248;149.138;2023-12-29T06:22:08;24.00;63.80
41533;DHT22;27262;-35.248;149.138;2023-12-29T06:24:41;24.00;63.70
41533;DHT22;27262;-35.248;149.138;2023-12-29T06:27:12;24.00;63.70
41533;DHT22;27262;-35.248;149.138;2023-12-29T06:29:42;24.00;63.70
41533;DHT22;27262;-35.248;149.138;2023-12-29T06:32:12;24.00;63.70
41533;DHT22;27262;-35.248;149.138;2023-12-29T06:34:43;24.10;63.70
41533;DHT22;27262;-35.248;149.138;2023-12-29T06:37:13;24.10;63.70
41533;DHT22;27262;-35.248;149.138;2023-12-29T06:39:44;24.10;63.60
41533;DHT22;27262;-35.248;149.138;2023-12-29T06:42:14;24.10;63.60
41533;DHT22;27262;-35.248;149.138;2023-12-29T06:44:46;24.10;63.60
41533;DHT22;27262;-35.248;149.138;2023-12-29T06:47:16;24.10;63.50
41533;DHT22;27262;-35.248;149.138;2023-12-29T06:49:46;24.10;63.50
41533;DHT22;27262;-35.248;149.138;2023-12-29T06:52:17;24.10;63.50
41533;DHT22;27262;-35.248;149.138;2023-12-29T06:54:50;24.10;63.50
41533;DHT22;27262;-35.248;149.138;2023-12-29T06:57:22;24.10;64.20
41533;DHT22;27262;-35.248;149.138;2023-12-29T06:59:53;24.10;63.40
41533;DHT22;27262;-35.248;149.138;2023-12-29T07:02:23;24.10;63.40
41533;DHT22;27262;-35.248;149.138;2023-12-29T07:04:53;24.10;63.40
41533;DHT22;27262;-35.248;149.138;2023-12-29T07:07:24;24.10;63.30
41533;DHT22;27262;-35.248;149.138;2023-12-29T07:09:55;24.10;63.30
41533;DHT22;27262;-35.248;149.138;2023-12-29T07:12:25;24.10;63.40
41533;DHT22;27262;-35.248;149.138;2023-12-29T07:14:56;24.10;63.30
41533;DHT22;27262;-35.248;149.138;2023-12-29T07:17:26;24.10;63.30
41533;DHT22;27262;-35.248;149.138;2023-12-29T07:19:57;24.10;63.20
41533;DHT22;27262;-35.248;149.138;2023-12-29T07:22:27;24.10;63.20
41533;DHT22;27262;-35.248;149.138;2023-12-29T07:24:58;24.10;63.10
41533;DHT22;27262;-35.248;149.138;2023-12-29T07:27:29;24.10;63.00
41533;DHT22;27262;-35.248;149.138;2023-12-29T07:29:59;24.00;63.00
41533;DHT22;27262;-35.248;149.138;2023-12-29T07:32:29;24.00;63.00
41533;DHT22;27262;-35.248;149.138;2023-12-29T07:35:00;24.00;63.00
41533;DHT22;27262;-35.248;149.138;2023-12-29T07:37:30;24.00;63.00
41533;DHT22;27262;-35.248;149.138;2023-12-29T07:40:01;24.00;63.00
41533;DHT22;27262;-35.248;149.138;2023-12-29T07:42:32;24.00;63.00
41533;DHT22;27262;-35.248;149.138;2023-12-29T07:45:05;24.00;63.00
41533;DHT22;27262;-35.248;149.138;2023-12-29T07:47:36;24.00;63.00
41533;DHT22;27262;-35.248;149.138;2023-12-29T07:50:07;24.00;63.10
41533;DHT22;27262;-35.248;149.138;2023-12-29T07:52:37;24.00;63.10
41533;DHT22;27262;-35.248;149.138;2023-12-29T07:55:07;24.00;63.00
41533;DHT22;27262;-35.248;149.138;2023-12-29T07:57:38;24.00;62.90
41533;DHT22;27262;-35.248;149.138;2023-12-29T08:00:09;24.00;62.80
41533;DHT22;27262;-35.248;149.138;2023-12-29T08:02:39;24.00;62.70
41533;DHT22;27262;-35.248;149.138;2023-12-29T08:05:09;24.00;62.70
41533;DHT22;27262;-35.248;149.138;2023-12-29T08:07:40;24.00;62.70
41533;DHT22;27262;-35.248;149.138;2023-12-29T08:10:10;24.00;62.70
41533;DHT22;27262;-35.248;149.138;2023-12-29T08:12:40;24.00;62.70
41533;DHT22;27262;-35.248;149.138;2023-12-29T08:15:11;24.00;62.70
41533;DHT22;27262;-35.248;149.138;2023-12-29T08:17:41;24.00;62.80
41533;DHT22;27262;-35.248;149.138;2023-12-29T08:20:12;24.00;62.80
41533;DHT22;27262;-35.248;149.138;2023-12-29T08:22:42;24.00;62.80
41533;DHT22;27262;-35.248;149.138;2023-12-29T08:25:13;24.00;62.90
41533;DHT22;27262;-35.248;149.138;2023-12-29T08:27:43;24.00;62.90
41533;DHT22;27262;-35.248;149.138;2023-12-29T08:30:14;24.00;62.90
41533;DHT22;27262;-35.248;149.138;2023-12-29T08:32:44;24.00;63.00
41533;DHT22;27262;-35.248;149.138;2023-12-29T08:35:15;23.90;63.00
41533;DHT22;27262;-35.248;149.138;2023-12-29T08:37:45;24.00;63.00
41533;DHT22;27262;-35.248;149.138;2023-12-29T08:40:16;23.90;62.90
41533;DHT22;27262;-35.248;149.138;2023-12-29T08:42:46;23.90;63.00
41533;DHT22;27262;-35.248;149.138;2023-12-29T08:45:18;23.90;63.00
41533;DHT22;27262;-35.248;149.138;2023-12-29T08:47:48;23.90;63.00
41533;DHT22;27262;-35.248;149.138;2023-12-29T08:50:19;23.90;63.00
41533;DHT22;27262;-35.248;149.138;2023-12-29T08:52:49;23.90;63.00
41533;DHT22;27262;-35.248;149.138;2023-12-29T08:55:19;23.90;63.00
41533;DHT22;27262;-35.248;149.138;2023-12-29T08:57:50;23.90;63.00
41533;DHT22;27262;-35.248;149.138;2023-12-29T09:00:20;23.90;63.00
41533;DHT22;27262;-35.248;149.138;2023-12-29T09:02:51;23.90;63.10
41533;DHT22;27262;-35.248;149.138;2023-12-29T09:05:21;23.90;63.10
41533;DHT22;27262;-35.248;149.138;2023-12-29T09:07:52;23.90;63.10
41533;DHT22;27262;-35.248;149.138;2023-12-29T09:10:22;23.90;63.10
41533;DHT22;27262;-35.248;149.138;2023-12-29T09:12:52;23.90;63.10
41533;DHT22;27262;-35.248;149.138;2023-12-29T09:15:23;23.90;63.10
41533;DHT22;27262;-35.248;149.138;2023-12-29T09:17:53;23.90;63.20
41533;DHT22;27262;-35.248;149.138;2023-12-29T09:20:24;23.90;63.20
41533;DHT22;27262;-35.248;149.138;2023-12-29T09:22:54;23.90;63.20
41533;DHT22;27262;-35.248;149.138;2023-12-29T09:25:25;23.90;63.20
41533;DHT22;27262;-35.248;149.138;2023-12-29T09:27:56;23.90;63.20
41533;DHT22;27262;-35.248;149.138;2023-12-29T09:30:27;23.90;63.20
41533;DHT22;27262;-35.248;149.138;2023-12-29T09:32:58;23.90;64.00
41533;DHT22;27262;-35.248;149.138;2023-12-29T09:35:28;23.90;63.20
41533;DHT22;27262;-35.248;149.138;2023-12-29T09:38:01;23.90;63.30
41533;DHT22;27262;-35.248;149.138;2023-12-29T09:40:34;23.90;63.30
41533;DHT22;27262;-35.248;149.138;2023-12-29T09:43:05;23.90;63.30
41533;DHT22;27262;-35.248;149.138;2023-12-29T09:45:38;23.80;63.20
41533;DHT22;27262;-35.248;149.138;2023-12-29T09:48:08;23.80;63.20
41533;DHT22;27262;-35.248;149.138;2023-12-29T09:50:41;23.80;63.20
41533;DHT22;27262;-35.248;149.138;2023-12-29T09:53:13;23.80;63.20
41533;DHT22;27262;-35.248;149.138;2023-12-29T09:55:45;23.80;63.20
41533;DHT22;27262;-35.248;149.138;2023-12-29T09:58:16;23.80;63.20
41533;DHT22;27262;-35.248;149.138;2023-12-29T10:00:49;23.80;63.20
41533;DHT22;27262;-35.248;149.138;2023-12-29T10:03:20;23.80;63.20
41533;DHT22;27262;-35.248;149.138;2023-12-29T10:05:53;23.80;63.20
41533;DHT22;27262;-35.248;149.138;2023-12-29T10:08:27;23.80;63.20
41533;DHT22;27262;-35.248;149.138;2023-12-29T10:10:58;23.80;63.20
41533;DHT22;27262;-35.248;149.138;2023-12-29T10:13:32;23.80;63.20
41533;DHT22;27262;-35.248;149.138;2023-12-29T10:22:01;23.80;63.20
41533;DHT22;27262;-35.248;149.138;2023-12-29T10:24:34;23.70;63.20
41533;DHT22;27262;-35.248;149.138;2023-12-29T10:27:06;23.70;63.30
41533;DHT22;27262;-35.248;149.138;2023-12-29T10:29:36;23.70;63.30
41533;DHT22;27262;-35.248;149.138;2023-12-29T10:32:07;23.70;63.30
41533;DHT22;27262;-35.248;149.138;2023-12-29T10:34:39;23.70;63.30
41533;DHT22;27262;-35.248;149.138;2023-12-29T10:37:11;23.70;63.20
41533;DHT22;27262;-35.248;149.138;2023-12-29T10:39:58;23.70;63.20
41533;DHT22;27262;-35.248;149.138;2023-12-29T10:42:28;23.70;63.10
41533;DHT22;27262;-35.248;149.138;2023-12-29T10:45:07;23.70;63.20
41533;DHT22;27262;-35.248;149.138;2023-12-29T10:47:37;23.70;63.10
41533;DHT22;27262;-35.248;149.138;2023-12-29T10:50:13;23.70;63.20
41533;DHT22;27262;-35.248;149.138;2023-12-29T10:52:44;23.70;63.20
41533;DHT22;27262;-35.248;149.138;2023-12-29T10:55:16;23.70;63.20
41533;DHT22;27262;-35.248;149.138;2023-12-29T10:57:46;23.70;63.20
41533;DHT22;27262;-35.248;149.138;2023-12-29T11:00:17;23.60;63.20
41533;DHT22;27262;-35.248;149.138;2023-12-29T11:02:54;23.60;63.20
41533;DHT22;27262;-35.248;149.138;2023-12-29T11:05:28;23.60;63.10
41533;DHT22;27262;-35.248;149.138;2023-12-29T11:07:58;23.60;63.20
41533;DHT22;27262;-35.248;149.138;2023-12-29T11:10:30;23.60;63.20
41533;DHT22;27262;-35.248;149.138;2023-12-29T11:13:01;23.60;63.20
41533;DHT22;27262;-35.248;149.138;2023-12-29T11:15:35;23.60;63.20
41533;DHT22;27262;-35.248;149.138;2023-12-29T11:18:06;23.60;63.20
41533;DHT22;27262;-35.248;149.138;2023-12-29T11:20:38;23.60;63.20
41533;DHT22;27262;-35.248;149.138;2023-12-29T11:23:10;23.60;63.20
41533;DHT22;27262;-35.248;149.138;2023-12-29T11:25:46;23.60;63.10
41533;DHT22;27262;-35.248;149.138;2023-12-29T11:28:18;23.60;63.20
41533;DHT22;27262;-35.248;149.138;2023-12-29T11:30:49;23.50;63.10
41533;DHT22;27262;-35.248;149.138;2023-12-29T11:33:29;23.50;63.10
41533;DHT22;27262;-35.248;149.138;2023-12-29T11:36:14;23.50;63.10
41533;DHT22;27262;-35.248;149.138;2023-12-29T11:42:28;23.50;63.20
41533;DHT22;27262;-35.248;149.138;2023-12-29T11:44:57;23.50;63.10
41533;DHT22;27262;-35.248;149.138;2023-12-29T11:47:39;23.50;63.20
41533;DHT22;27262;-35.248;149.138;2023-12-29T11:50:11;23.50;63.20
41533;DHT22;27262;-35.248;149.138;2023-12-29T11:52:41;23.40;63.20
41533;DHT22;27262;-35.248;149.138;2023-12-29T11:55:13;23.40;63.20
41533;DHT22;27262;-35.248;149.138;2023-12-29T11:57:52;23.40;63.20
41533;DHT22;27262;-35.248;149.138;2023-12-29T12:00:43;23.40;63.30
41533;DHT22;27262;-35.248;149.138;2023-12-29T12:03:25;23.40;63.10
41533;DHT22;27262;-35.248;149.138;2023-12-29T12:05:56;23.40;63.40
41533;DHT22;27262;-35.248;149.138;2023-12-29T12:08:32;23.40;63.40
41533;DHT22;27262;-35.248;149.138;2023-12-29T12:13:59;23.40;63.20
41533;DHT22;27262;-35.248;149.138;2023-12-29T12:16:50;23.40;63.40
41533;DHT22;27262;-35.248;149.138;2023-12-29T12:19:22;23.40;63.30
41533;DHT22;27262;-35.248;149.138;2023-12-29T12:21:56;23.40;63.50
41533;DHT22;27262;-35.248;149.138;2023-12-29T12:24:28;23.40;63.50
41533;DHT22;27262;-35.248;149.138;2023-12-29T12:26:58;23.40;63.50
41533;DHT22;27262;-35.248;149.138;2023-12-29T12:29:30;23.40;63.50
41533;DHT22;27262;-35.248;149.138;2023-12-29T12:32:00;23.40;63.40
41533;DHT22;27262;-35.248;149.138;2023-12-29T12:34:37;23.40;63.40
41533;DHT22;27262;-35.248;149.138;2023-12-29T12:37:09;23.30;63.30
41533;DHT22;27262;-35.248;149.138;2023-12-29T12:39:42;23.30;63.40
41533;DHT22;27262;-35.248;149.138;2023-12-29T12:42:13;23.30;63.30
41533;DHT22;27262;-35.248;149.138;2023-12-29T12:45:11;23.30;63.30
41533;DHT22;27262;-35.248;149.138;2023-12-29T12:47:45;23.30;63.20
41533;DHT22;27262;-35.248;149.138;2023-12-29T12:50:16;23.30;63.40
41533;DHT22;27262;-35.248;149.138;2023-12-29T12:52:47;23.30;63.40
41533;DHT22;27262;-35.248;149.138;2023-12-29T12:55:17;23.30;63.40
41533;DHT22;27262;-35.248;149.138;2023-12-29T12:57:48;23.30;63.30
41533;DHT22;27262;-35.248;149.138;2023-12-29T13:00:19;23.30;63.20
41533;DHT22;27262;-35.248;149.138;2023-12-29T13:02:50;23.30;63.20
41533;DHT22;27262;-35.248;149.138;2023-12-29T13:05:20;23.30;63.30
41533;DHT22;27262;-35.248;149.138;2023-12-29T13:07:54;23.20;63.30
41533;DHT22;27262;-35.248;149.138;2023-12-29T13:10:28;23.20;63.20
41533;DHT22;27262;-35.248;149.138;2023-12-29T13:12:58;23.30;63.40
41533;DHT22;27262;-35.248;149.138;2023-12-29T13:15:29;23.20;63.30
41533;DHT22;27262;-35.248;149.138;2023-12-29T13:17:59;23.20;63.30
41533;DHT22;27262;-35.248;149.138;2023-12-29T13:20:30;23.20;63.30
41533;DHT22;27262;-35.248;149.138;2023-12-29T13:23:13;23.20;63.30
41533;DHT22;27262;-35.248;149.138;2023-12-29T13:25:44;23.20;63.30
41533;DHT22;27262;-35.248;149.138;2023-12-29T13:28:17;23.10;63.20
41533;DHT22;27262;-35.248;149.138;2023-12-29T13:30:48;23.10;63.30
41533;DHT22;27262;-35.248;149.138;2023-12-29T13:33:32;23.10;63.20
41533;DHT22;27262;-35.248;149.138;2023-12-29T13:42:03;23.10;63.20
41533;DHT22;27262;-35.248;149.138;2023-12-29T13:44:36;23.10;63.30
41533;DHT22;27262;-35.248;149.138;2023-12-29T13:47:08;23.10;63.30
41533;DHT22;27262;-35.248;149.138;2023-12-29T13:49:40;23.10;63.30
41533;DHT22;27262;-35.248;149.138;2023-12-29T13:52:11;23.10;63.20
41533;DHT22;27262;-35.248;149.138;2023-12-29T13:54:44;23.10;63.30
41533;DHT22;27262;-35.248;149.138;2023-12-29T13:57:15;23.10;63.20
41533;DHT22;27262;-35.248;149.138;2023-12-29T13:59:47;23.10;63.20
41533;DHT22;27262;-35.248;149.138;2023-12-29T14:02:29;23.00;63.20
41533;DHT22;27262;-35.248;149.138;2023-12-29T14:08:08;23.00;63.10
41533;DHT22;27262;-35.248;149.138;2023-12-29T14:10:40;23.00;63.20
41533;DHT22;27262;-35.248;149.138;2023-12-29T14:13:15;23.00;63.20
41533;DHT22;27262;-35.248;149.138;2023-12-29T14:15:46;23.00;63.20
41533;DHT22;27262;-35.248;149.138;2023-12-29T14:21:28;23.00;63.10
41533;DHT22;27262;-35.248;149.138;2023-12-29T14:24:06;23.00;63.20
41533;DHT22;27262;-35.248;149.138;2023-12-29T14:26:40;22.90;63.20
41533;DHT22;27262;-35.248;149.138;2023-12-29T14:29:14;22.90;63.10
41533;DHT22;27262;-35.248;149.138;2023-12-29T14:31:46;23.00;63.30
41533;DHT22;27262;-35.248;149.138;2023-12-29T14:34:17;22.90;63.20
41533;DHT22;27262;-35.248;149.138;2023-12-29T14:36:49;22.90;63.20
41533;DHT22;27262;-35.248;149.138;2023-12-29T14:39:19;22.90;63.20
41533;DHT22;27262;-35.248;149.138;2023-12-29T14:41:50;22.90;63.10
41533;DHT22;27262;-35.248;149.138;2023-12-29T14:44:22;22.90;63.20
41533;DHT22;27262;-35.248;149.138;2023-12-29T14:46:53;22.90;63.10
41533;DHT22;27262;-35.248;149.138;2023-12-29T14:49:23;22.90;63.10
41533;DHT22;27262;-35.248;149.138;2023-12-29T14:51:54;22.90;63.10
41533;DHT22;27262;-35.248;149.138;2023-12-29T14:54:26;22.90;63.30
41533;DHT22;27262;-35.248;149.138;2023-12-29T14:56:56;22.80;63.30
41533;DHT22;27262;-35.248;149.138;2023-12-29T14:59:37;22.90;63.40
41533;DHT22;27262;-35.248;149.138;2023-12-29T15:02:08;22.80;63.40
41533;DHT22;27262;-35.248;149.138;2023-12-29T15:04:38;22.90;63.40
41533;DHT22;27262;-35.248;149.138;2023-12-29T15:07:09;22.80;63.40
41533;DHT22;27262;-35.248;149.138;2023-12-29T15:09:39;22.80;63.40
41533;DHT22;27262;-35.248;149.138;2023-12-29T15:12:09;22.80;63.40
41533;DHT22;27262;-35.248;149.138;2023-12-29T15:14:40;22.80;63.40
41533;DHT22;27262;-35.248;149.138;2023-12-29T15:17:11;22.80;63.40
41533;DHT22;27262;-35.248;149.138;2023-12-29T15:19:41;22.80;63.40
41533;DHT22;27262;-35.248;149.138;2023-12-29T15:22:11;22.80;63.40
41533;DHT22;27262;-35.248;149.138;2023-12-29T15:24:42;22.70;63.40
41533;DHT22;27262;-35.248;149.138;2023-12-29T15:27:12;22.70;63.40
41533;DHT22;27262;-35.248;149.138;2023-12-29T15:29:42;22.70;63.30
41533;DHT22;27262;-35.248;149.138;2023-12-29T15:32:12;22.70;63.30
41533;DHT22;27262;-35.248;149.138;2023-12-29T15:34:43;22.70;63.30
41533;DHT22;27262;-35.248;149.138;2023-12-29T15:37:14;22.70;63.30
41533;DHT22;27262;-35.248;149.138;2023-12-29T15:39:44;22.70;63.40